createdAt,value
2022-12-14T00:01:34.696Z,6.27
2022-12-14T00:04:01.185Z,5.63
2022-12-14T00:06:31.685Z,5.70
2022-12-14T00:09:01.268Z,5.37
2022-12-14T00:11:28.036Z,4.97
2022-12-14T00:14:01.690Z,5.53
2022-12-14T00:16:31.466Z,5.37
2022-12-14T00:19:00.272Z,6.57
2022-12-14T00:21:27.454Z,7.00
2022-12-14T00:23:58.278Z,7.40
2022-12-14T00:26:31.026Z,7.97
2022-12-14T00:28:59.828Z,8.90
2022-12-14T00:31:27.223Z,7.70
2022-12-14T00:33:54.663Z,6.87
2022-12-14T00:36:22.735Z,6.43
2022-12-14T00:38:49.335Z,7.50
2022-12-14T00:41:15.889Z,7.07
2022-12-14T00:43:42.706Z,7.13
2022-12-14T00:46:09.236Z,7.90
2022-12-14T00:48:35.768Z,7.73
2022-12-14T00:51:02.654Z,6.83
2022-12-14T00:53:29.177Z,7.87
2022-12-14T00:55:55.682Z,7.03
2022-12-14T00:58:24.564Z,6.27
2022-12-14T01:01:12.777Z,7.13
2022-12-14T01:03:39.655Z,6.80
2022-12-14T01:06:12.080Z,7.20
2022-12-14T01:08:38.552Z,6.80
2022-12-14T01:11:07.074Z,6.97
2022-12-14T01:13:35.064Z,8.57
2022-12-14T01:16:19.741Z,7.00
2022-12-14T01:18:46.272Z,6.50
2022-12-14T01:21:18.113Z,7.33
2022-12-14T01:23:47.628Z,7.23
2022-12-14T01:26:16.861Z,6.97
2022-12-14T01:28:45.123Z,7.37
2022-12-14T01:31:18.216Z,7.43
2022-12-14T01:33:45.016Z,6.67
2022-12-14T01:36:19.353Z,7.30
2022-12-14T01:38:46.289Z,7.07
2022-12-14T01:41:40.214Z,7.10
2022-12-14T01:45:37.218Z,6.60
2022-12-14T01:48:04.693Z,6.20
2022-12-14T01:50:41.375Z,6.77
2022-12-14T01:53:22.043Z,6.70
2022-12-14T01:55:54.570Z,7.37
2022-12-14T01:58:26.076Z,7.37
2022-12-14T02:00:57.364Z,7.07
2022-12-14T02:03:37.422Z,7.10
2022-12-14T02:06:24.880Z,6.93
2022-12-14T02:08:53.988Z,6.93
2022-12-14T02:11:50.573Z,7.60
2022-12-14T02:14:17.088Z,7.63
2022-12-14T02:16:43.622Z,7.33
2022-12-14T02:19:10.134Z,7.47
2022-12-14T02:22:24.757Z,7.37
2022-12-14T02:29:28.108Z,6.97
2022-12-14T02:34:57.858Z,6.07
2022-12-14T02:37:49.026Z,5.53
2022-12-14T02:41:16.389Z,6.20
2022-12-14T02:44:22.223Z,7.07
2022-12-14T02:47:06.628Z,7.17
2022-12-14T02:51:25.368Z,6.53
2022-12-14T02:54:19.791Z,6.07
2022-12-14T02:57:03.149Z,6.17
2022-12-14T02:59:33.047Z,6.17
2022-12-14T03:02:03.455Z,6.33
2022-12-14T03:04:30.116Z,6.13
2022-12-14T03:07:02.539Z,6.30
2022-12-14T03:09:31.842Z,5.80
2022-12-14T03:12:08.884Z,6.27
2022-12-14T03:14:50.626Z,6.60
2022-12-14T03:17:27.111Z,6.70
2022-12-14T03:20:10.815Z,6.03
2022-12-14T03:22:58.797Z,5.50
2022-12-14T03:26:00.806Z,6.53
2022-12-14T03:28:51.115Z,6.20
2022-12-14T03:31:49.431Z,7.13
2022-12-14T03:34:21.727Z,7.20
2022-12-14T03:37:15.694Z,8.50
2022-12-14T03:39:44.861Z,7.57
2022-12-14T03:44:13.801Z,8.13
2022-12-14T03:49:58.277Z,7.57
2022-12-14T03:52:39.403Z,6.80
2022-12-14T03:57:02.757Z,6.50
2022-12-14T04:02:24.720Z,6.23
2022-12-14T04:05:08.719Z,7.07
2022-12-14T04:08:29.532Z,7.80
2022-12-14T04:11:21.027Z,6.97
2022-12-14T04:14:40.059Z,7.43
2022-12-14T04:17:34.322Z,7.13
2022-12-14T04:20:16.970Z,7.63
2022-12-14T04:22:53.655Z,7.03
2022-12-14T04:25:50.207Z,7.00
2022-12-14T04:28:43.417Z,7.10
2022-12-14T04:31:18.716Z,6.60
2022-12-14T04:33:54.201Z,6.07
2022-12-14T04:36:37.867Z,7.20
2022-12-14T04:39:14.407Z,6.00
2022-12-14T04:41:47.850Z,6.70
2022-12-14T04:44:25.653Z,6.23
2022-12-14T04:46:55.377Z,6.50
2022-12-14T04:49:44.876Z,6.83
2022-12-14T04:52:23.895Z,6.93
2022-12-14T04:55:04.489Z,7.07
2022-12-14T04:57:47.383Z,5.90
2022-12-14T05:00:15.179Z,6.60
2022-12-14T05:03:31.314Z,8.57
2022-12-14T05:10:36.618Z,8.53
2022-12-14T05:13:49.910Z,8.83
2022-12-14T05:16:22.552Z,8.80
2022-12-14T05:18:50.070Z,12.23
2022-12-14T05:21:34.771Z,10.27
2022-12-14T05:24:03.471Z,9.87
2022-12-14T05:26:31.731Z,9.70
2022-12-14T05:28:58.314Z,10.73
2022-12-14T05:31:25.483Z,9.30
2022-12-14T05:33:51.994Z,8.10
2022-12-14T05:36:18.918Z,8.30
2022-12-14T05:38:45.869Z,9.60
2022-12-14T05:41:12.382Z,11.17
2022-12-14T05:43:38.853Z,12.60
2022-12-14T05:46:05.652Z,13.67
2022-12-14T05:48:33.347Z,13.47
2022-12-14T05:51:08.332Z,12.40
2022-12-14T05:53:39.404Z,10.80
2022-12-14T05:56:08.146Z,11.73
2022-12-14T05:58:35.247Z,11.63
2022-12-14T06:01:04.528Z,12.27
2022-12-14T06:03:31.363Z,11.93
2022-12-14T06:06:12.515Z,10.13
2022-12-14T06:08:44.583Z,10.70
2022-12-14T06:11:18.389Z,11.40
2022-12-14T06:13:45.757Z,9.97
2022-12-14T06:16:24.490Z,9.83
2022-12-14T06:18:55.220Z,10.90
2022-12-14T06:21:26.354Z,11.17
2022-12-14T06:23:54.158Z,11.93
2022-12-14T06:26:21.236Z,12.77
2022-12-14T06:28:47.800Z,12.73
2022-12-14T06:31:23.955Z,13.53
2022-12-14T06:33:52.500Z,14.83
2022-12-14T06:36:23.318Z,14.00
2022-12-14T06:38:54.765Z,13.33
2022-12-14T06:41:23.265Z,12.53
2022-12-14T06:43:51.489Z,12.37
2022-12-14T06:46:21.757Z,11.77
2022-12-14T06:48:55.223Z,11.93
2022-12-14T06:51:23.664Z,9.80
2022-12-14T06:53:55.235Z,11.27
2022-12-14T06:56:24.712Z,13.17
2022-12-14T06:58:53.681Z,11.97
2022-12-14T07:01:23.114Z,13.07
2022-12-14T07:03:52.905Z,12.37
2022-12-14T07:06:20.938Z,12.17
2022-12-14T07:08:48.677Z,11.47
2022-12-14T07:11:17.027Z,12.37
2022-12-14T07:13:44.060Z,13.97
2022-12-14T07:16:25.803Z,11.60
2022-12-14T07:18:53.982Z,11.93
2022-12-14T07:21:22.179Z,11.47
2022-12-14T07:23:51.586Z,11.60
2022-12-14T07:26:22.508Z,11.03
2022-12-14T07:28:49.962Z,11.57
2022-12-14T07:31:20.998Z,11.33
2022-12-14T07:33:48.681Z,11.23
2022-12-14T07:36:18.332Z,11.57
2022-12-14T07:38:48.271Z,11.47
2022-12-14T07:41:23.035Z,11.33
2022-12-14T07:43:51.745Z,13.37
2022-12-14T07:46:22.328Z,12.77
2022-12-14T07:48:55.104Z,11.87
2022-12-14T07:51:28.320Z,12.87
2022-12-14T07:53:55.466Z,12.73
2022-12-14T07:56:31.577Z,13.17
2022-12-14T07:59:00.451Z,13.63
2022-12-14T08:01:38.423Z,12.63
2022-12-14T08:04:11.336Z,12.17
2022-12-14T08:06:39.360Z,11.90
2022-12-14T08:09:08.276Z,12.53
2022-12-14T08:11:35.488Z,12.10
2022-12-14T08:14:10.180Z,13.77
2022-12-14T08:16:36.755Z,14.00
2022-12-14T08:19:03.731Z,14.37
2022-12-14T08:21:30.292Z,14.27
2022-12-14T08:23:59.175Z,16.13
2022-12-14T08:26:31.581Z,14.60
2022-12-14T08:29:01.704Z,14.73
2022-12-14T08:31:28.417Z,14.73
2022-12-14T08:33:55.064Z,12.50
2022-12-14T08:36:26.132Z,14.77
2022-12-14T08:38:58.721Z,14.63
2022-12-14T08:41:26.694Z,14.77
2022-12-14T08:43:57.624Z,14.87
2022-12-14T08:46:26.724Z,15.20
2022-12-14T08:48:55.358Z,15.13
2022-12-14T08:51:25.163Z,15.20
2022-12-14T08:53:53.051Z,13.90
2022-12-14T08:56:24.243Z,14.00
2022-12-14T08:58:51.216Z,14.83
2022-12-14T09:01:28.192Z,15.23
2022-12-14T09:04:06.934Z,15.00
2022-12-14T09:06:37.234Z,16.00
2022-12-14T09:09:10.431Z,14.40
2022-12-14T09:11:42.111Z,14.37
2022-12-14T09:14:08.618Z,14.53
2022-12-14T09:16:35.224Z,13.87
2022-12-14T09:19:01.878Z,13.77
2022-12-14T09:21:28.544Z,14.57
2022-12-14T09:23:59.196Z,13.60
2022-12-14T09:26:27.363Z,13.17
2022-12-14T09:28:55.882Z,14.47
2022-12-14T09:31:26.759Z,13.80
2022-12-14T09:33:54.222Z,14.30
2022-12-14T09:36:25.560Z,14.53
2022-12-14T09:38:54.539Z,14.40
2022-12-14T09:42:01.238Z,13.80
2022-12-14T09:45:10.673Z,14.57
2022-12-14T09:49:01.420Z,13.87
2022-12-14T09:51:36.618Z,12.80
2022-12-14T09:54:11.924Z,13.07
2022-12-14T09:56:40.044Z,15.20
2022-12-14T09:59:13.721Z,14.47
2022-12-14T10:02:31.473Z,13.60
2022-12-14T10:09:16.304Z,15.37
2022-12-14T10:15:14.981Z,14.60
2022-12-14T10:20:47.524Z,12.10
2022-12-14T10:23:22.973Z,13.00
2022-12-14T10:25:56.754Z,13.53
2022-12-14T10:29:01.463Z,13.63
2022-12-14T10:31:53.228Z,13.57
2022-12-14T10:34:27.897Z,13.13
2022-12-14T10:37:34.112Z,12.87
2022-12-14T10:41:24.715Z,12.40
2022-12-14T10:44:29.828Z,12.67
2022-12-14T10:47:36.582Z,12.57
2022-12-14T10:52:40.794Z,11.80
2022-12-14T10:55:28.957Z,12.47
2022-12-14T10:57:55.477Z,12.47
2022-12-14T11:00:23.797Z,12.57
2022-12-14T11:02:55.864Z,13.13
2022-12-14T11:06:16.551Z,12.93
2022-12-14T11:08:47.871Z,13.17
2022-12-14T11:11:27.029Z,12.70
2022-12-14T11:14:07.647Z,12.43
2022-12-14T11:16:38.963Z,12.90
2022-12-14T11:19:17.406Z,13.57
2022-12-14T11:21:45.363Z,14.90
2022-12-14T11:24:27.996Z,14.83
2022-12-14T11:27:01.549Z,12.97
2022-12-14T11:29:37.201Z,14.60
2022-12-14T11:32:05.114Z,13.90
2022-12-14T11:34:39.813Z,14.03
2022-12-14T11:37:26.007Z,14.67
2022-12-14T11:40:05.710Z,14.87
2022-12-14T11:42:33.292Z,13.33
2022-12-14T11:45:30.705Z,14.87
2022-12-14T11:49:57.024Z,13.37
2022-12-14T11:52:42.408Z,14.53
2022-12-14T11:55:26.727Z,14.23
2022-12-14T11:57:59.103Z,14.80
2022-12-14T12:00:54.817Z,15.00
2022-12-14T12:03:38.810Z,14.10
2022-12-14T12:06:10.890Z,14.63
2022-12-14T12:08:40.937Z,15.00
2022-12-14T12:11:25.998Z,15.17
2022-12-14T12:14:00.788Z,13.80
2022-12-14T12:16:30.045Z,14.23
2022-12-14T12:19:39.414Z,13.77
2022-12-14T12:22:11.046Z,13.83
2022-12-14T12:28:17.105Z,14.60
2022-12-14T12:30:50.440Z,13.40
2022-12-14T12:33:33.502Z,14.17
2022-12-14T12:36:04.698Z,14.77
2022-12-14T12:39:09.739Z,14.03
2022-12-14T12:45:53.813Z,13.57
2022-12-14T12:48:39.637Z,11.90
2022-12-14T12:51:15.390Z,12.93
2022-12-14T12:53:58.232Z,13.33
2022-12-14T12:56:55.209Z,13.13
2022-12-14T13:00:06.465Z,13.27
2022-12-14T13:02:44.695Z,13.43
2022-12-14T13:05:45.827Z,13.97
2022-12-14T13:08:26.290Z,13.27
2022-12-14T13:14:33.650Z,13.57
2022-12-14T13:17:05.460Z,15.67
2022-12-14T13:19:52.069Z,15.60
2022-12-14T13:22:31.151Z,15.93
2022-12-14T13:25:10.255Z,17.43
2022-12-14T13:28:22.659Z,16.80
2022-12-14T13:35:17.535Z,14.97
2022-12-14T13:38:46.168Z,14.03
2022-12-14T13:41:44.704Z,14.73
2022-12-14T13:45:02.331Z,14.70
2022-12-14T13:47:43.014Z,14.80
2022-12-14T13:50:42.246Z,16.40
2022-12-14T13:53:41.406Z,17.77
2022-12-14T13:56:09.034Z,16.23
2022-12-14T13:58:47.696Z,15.20
2022-12-14T14:01:54.233Z,14.50
2022-12-14T14:04:30.259Z,14.77
2022-12-14T14:08:39.279Z,14.70
2022-12-14T14:12:43.020Z,14.07
2022-12-14T14:19:22.394Z,12.80
2022-12-14T14:22:26.718Z,14.00
2022-12-14T14:27:00.380Z,14.93
2022-12-14T14:29:29.880Z,15.00
2022-12-14T14:32:05.949Z,15.70
2022-12-14T14:34:50.437Z,14.83
2022-12-14T14:37:37.773Z,15.57
2022-12-14T14:40:58.609Z,14.53
2022-12-14T14:43:51.109Z,14.80
2022-12-14T14:46:23.067Z,14.90
2022-12-14T14:48:59.801Z,15.70
2022-12-14T14:51:31.943Z,15.50
2022-12-14T14:56:39.149Z,16.17
2022-12-14T15:00:10.460Z,15.40
2022-12-14T15:02:42.264Z,15.57
2022-12-14T15:08:28.891Z,14.73
2022-12-14T15:10:57.654Z,16.03
2022-12-14T15:13:36.430Z,16.10
2022-12-14T15:16:02.980Z,16.40
2022-12-14T15:18:31.500Z,15.53
2022-12-14T15:21:10.952Z,15.50
2022-12-14T15:23:45.030Z,16.67
2022-12-14T15:26:26.563Z,15.90
2022-12-14T15:28:57.430Z,15.20
2022-12-14T15:31:34.886Z,14.90
2022-12-14T15:34:02.521Z,16.10
2022-12-14T15:36:41.395Z,15.00
2022-12-14T15:40:06.271Z,16.57
2022-12-14T15:42:32.775Z,15.67
2022-12-14T15:45:13.008Z,16.47
2022-12-14T15:47:39.474Z,15.63
2022-12-14T15:50:31.921Z,16.53
2022-12-14T15:53:14.373Z,16.17
2022-12-14T15:55:43.125Z,14.93
2022-12-14T15:58:40.070Z,16.17
2022-12-14T16:01:40.105Z,16.00
2022-12-14T16:04:14.701Z,16.17
2022-12-14T16:06:49.471Z,15.50
2022-12-14T16:09:41.665Z,15.63
2022-12-14T16:12:40.897Z,14.77
2022-12-14T16:15:25.389Z,14.03
2022-12-14T16:18:01.435Z,15.17
2022-12-14T16:20:33.395Z,16.17
2022-12-14T16:23:50.212Z,14.80
2022-12-14T16:26:37.210Z,15.60
2022-12-14T16:29:37.306Z,17.23
2022-12-14T16:32:13.248Z,14.90
2022-12-14T16:34:47.343Z,15.97
2022-12-14T16:37:32.687Z,15.23
2022-12-14T16:40:00.097Z,15.77
2022-12-14T16:42:27.272Z,16.37
2022-12-14T16:44:53.871Z,15.30
2022-12-14T16:49:54.167Z,14.47
2022-12-14T16:52:30.302Z,15.10
2022-12-14T16:56:15.560Z,16.10
2022-12-14T16:58:53.501Z,14.63
2022-12-14T17:01:20.781Z,16.10
2022-12-14T17:03:59.329Z,15.30
2022-12-14T17:06:45.029Z,16.17
2022-12-14T17:09:24.849Z,15.17
2022-12-14T17:11:56.711Z,14.83
2022-12-14T17:14:23.347Z,15.53
2022-12-14T17:17:01.028Z,16.40
2022-12-14T17:19:36.614Z,16.03
2022-12-14T17:22:15.476Z,16.87
2022-12-14T17:24:41.974Z,15.37
2022-12-14T17:27:14.798Z,14.27
2022-12-14T17:29:41.314Z,15.00
2022-12-14T17:32:12.444Z,16.47
2022-12-14T17:34:39.163Z,14.57
2022-12-14T17:37:16.142Z,15.80
2022-12-14T17:39:42.744Z,14.13
2022-12-14T17:42:15.500Z,16.13
2022-12-14T17:44:47.799Z,15.97
2022-12-14T17:47:14.537Z,17.80
2022-12-14T17:49:42.282Z,17.27
2022-12-14T17:52:37.597Z,16.70
2022-12-14T17:55:04.847Z,14.50
2022-12-14T17:57:31.309Z,15.73
2022-12-14T18:00:15.906Z,16.80
2022-12-14T18:02:45.452Z,15.77
2022-12-14T18:05:19.907Z,17.37
2022-12-14T18:07:46.437Z,18.30
2022-12-14T18:10:17.634Z,17.57
2022-12-14T18:12:44.309Z,18.97
2022-12-14T18:15:21.120Z,17.77
2022-12-14T18:17:49.442Z,18.03
2022-12-14T18:20:16.498Z,17.23
2022-12-14T18:22:44.125Z,16.83
2022-12-14T18:25:51.980Z,17.03
2022-12-14T18:28:19.437Z,18.87
2022-12-14T18:30:57.650Z,19.60
2022-12-14T18:33:26.631Z,18.00
2022-12-14T18:35:56.175Z,18.60
2022-12-14T18:38:22.948Z,17.77
2022-12-14T18:40:53.436Z,22.90
2022-12-14T18:43:25.775Z,19.07
2022-12-14T18:45:54.205Z,18.83
2022-12-14T18:48:22.176Z,18.73
2022-12-14T18:50:50.206Z,18.27
2022-12-14T18:53:20.294Z,19.10
2022-12-14T18:55:50.225Z,18.50
2022-12-14T18:58:24.114Z,18.97
2022-12-14T19:00:54.333Z,20.20
2022-12-14T19:03:21.307Z,20.47
2022-12-14T19:05:48.455Z,21.27
2022-12-14T19:08:15.176Z,19.93
2022-12-14T19:10:47.210Z,25.57
2022-12-14T19:13:25.496Z,22.57
2022-12-14T19:15:53.702Z,19.73
2022-12-14T19:18:20.338Z,18.87
2022-12-14T19:20:49.546Z,20.03
2022-12-14T19:23:18.254Z,24.47
2022-12-14T19:25:46.053Z,28.93
2022-12-14T19:28:31.585Z,35.07
2022-12-14T19:31:00.142Z,35.97
2022-12-14T19:33:27.459Z,33.73
2022-12-14T19:35:54.226Z,30.37
2022-12-14T19:38:20.879Z,22.90
2022-12-14T19:41:04.173Z,21.40
2022-12-14T19:43:31.356Z,22.17
2022-12-14T19:45:58.284Z,23.37
2022-12-14T19:48:24.820Z,23.77
2022-12-14T19:50:51.444Z,27.40
2022-12-14T19:53:23.150Z,27.10
2022-12-14T19:55:52.348Z,29.37
2022-12-14T19:58:21.201Z,26.77
2022-12-14T20:00:49.098Z,22.80
2022-12-14T20:03:15.869Z,21.57
2022-12-14T20:05:50.883Z,19.73
2022-12-14T20:08:17.383Z,21.60
2022-12-14T20:10:43.897Z,24.30
2022-12-14T20:13:10.357Z,24.37
2022-12-14T20:15:37.078Z,21.30
2022-12-14T20:18:04.009Z,22.87
2022-12-14T20:20:33.925Z,20.00
2022-12-14T20:23:00.435Z,22.03
2022-12-14T20:25:26.931Z,20.93
2022-12-14T20:27:53.655Z,21.57
2022-12-14T20:30:20.134Z,21.90
2022-12-14T20:32:49.273Z,21.70
2022-12-14T20:35:17.925Z,25.83
2022-12-14T20:37:45.236Z,23.60
2022-12-14T20:40:12.797Z,27.50
2022-12-14T20:42:39.546Z,22.80
2022-12-14T20:45:07.629Z,22.40
2022-12-14T20:47:34.654Z,23.03
2022-12-14T20:50:01.181Z,23.03
2022-12-14T20:52:27.663Z,21.80
2022-12-14T20:54:54.172Z,21.33
2022-12-14T20:57:20.646Z,22.10
2022-12-14T20:59:47.134Z,26.20
2022-12-14T21:02:20.013Z,24.57
2022-12-14T21:04:46.589Z,24.10
2022-12-14T21:07:13.425Z,22.57
2022-12-14T21:09:39.882Z,21.20
2022-12-14T21:12:20.083Z,20.17
2022-12-14T21:14:51.352Z,18.23
2022-12-14T21:17:19.843Z,19.80
2022-12-14T21:19:47.028Z,21.73
2022-12-14T21:22:17.855Z,20.93
2022-12-14T21:25:02.465Z,20.23
2022-12-14T21:27:31.055Z,21.17
2022-12-14T21:29:59.258Z,20.97
2022-12-14T21:32:25.893Z,20.40
2022-12-14T21:34:52.379Z,20.57
2022-12-14T21:37:19.640Z,18.87
2022-12-14T21:39:53.912Z,18.73
2022-12-14T21:42:23.794Z,20.57
2022-12-14T21:44:52.530Z,19.90
2022-12-14T21:47:26.180Z,18.07
2022-12-14T21:49:53.691Z,19.10
2022-12-14T21:52:23.934Z,18.03
2022-12-14T21:54:50.892Z,18.30
2022-12-14T21:57:40.821Z,17.33
2022-12-14T22:00:09.606Z,18.47
2022-12-14T22:02:36.280Z,17.97
2022-12-14T22:05:03.009Z,18.33
2022-12-14T22:07:32.549Z,17.37
2022-12-14T22:09:59.131Z,18.47
2022-12-14T22:12:25.833Z,18.63
2022-12-14T22:14:52.446Z,19.03
2022-12-14T22:17:19.056Z,16.80
2022-12-14T22:19:45.523Z,18.67
2022-12-14T22:22:16.532Z,22.30
2022-12-14T22:24:43.950Z,21.63
2022-12-14T22:27:12.062Z,20.20
2022-12-14T22:29:38.692Z,16.73
2022-12-14T22:32:06.204Z,17.90
2022-12-14T22:34:32.751Z,18.20
2022-12-14T22:36:59.251Z,20.00
2022-12-14T22:39:25.751Z,17.53
2022-12-14T22:41:52.235Z,17.63
2022-12-14T22:44:18.706Z,17.73
2022-12-14T22:46:45.199Z,17.17
2022-12-14T22:49:16.864Z,18.47
2022-12-14T22:51:43.415Z,17.43
2022-12-14T22:54:18.061Z,17.80
2022-12-14T22:57:01.586Z,18.67
2022-12-14T22:59:47.065Z,17.77
2022-12-14T23:02:13.823Z,16.73
2022-12-14T23:04:40.527Z,18.47
2022-12-14T23:07:07.092Z,18.33
2022-12-14T23:09:51.912Z,18.10
2022-12-14T23:12:36.813Z,19.87
2022-12-14T23:15:22.581Z,18.90
2022-12-14T23:18:09.431Z,17.37
2022-12-14T23:20:57.163Z,17.30
2022-12-14T23:23:42.005Z,18.53
2022-12-14T23:26:26.841Z,16.23
2022-12-14T23:29:11.339Z,17.57
2022-12-14T23:31:56.244Z,16.57
2022-12-14T23:34:41.057Z,17.47
2022-12-14T23:37:25.799Z,18.17
2022-12-14T23:40:10.695Z,19.77
2022-12-14T23:42:55.546Z,20.47
2022-12-14T23:45:40.527Z,19.20
2022-12-14T23:48:25.382Z,19.90
2022-12-14T23:51:10.280Z,19.33
2022-12-14T23:53:55.157Z,20.13
2022-12-14T23:56:40.010Z,20.67
2022-12-14T23:59:29.730Z,19.47
